Time;durP1;ratioP1;P1;durP2;ratioP2;P2;SDS_P1;SDS_P2;PMS_P1;PMS_P2;Temp;Humidity;BMP_temperature;BMP_pressure;BME280_temperature;BME280_humidity;BME280_pressure;Samples;Min_cycle;Max_cycle;Signal;HPM_P1;HPM_P2
2023/10/05 00:03:43;;;;;;;7.80;3.70;;;;;;;20.06;43.40;100690.25;108189;1253;72822;-67
2023/10/05 00:06:14;;;;;;;10.20;4.00;;;;;;;20.20;43.15;100691.84;108302;1251;61739;-66
2023/10/05 00:08:47;;;;;;;7.20;3.50;;;;;;;20.15;43.08;100688.56;108162;1251;60276;-66
2023/10/05 00:11:29;;;;;;;9.50;4.20;;;;;;;19.99;43.62;100690.05;108209;1251;73872;-65
2023/10/05 00:13:59;;;;;;;8.10;3.60;;;;;;;19.98;43.45;100692.79;108396;1256;69145;-66
2023/10/05 00:16:36;;;;;;;12.00;4.20;;;;;;;20.04;43.38;100689.66;108464;1251;72641;-65
2023/10/05 00:19:12;;;;;;;8.50;3.70;;;;;;;20.14;43.24;100689.70;108256;1251;61715;-65
2023/10/05 00:24:18;;;;;;;10.60;4.50;;;;;;;20.44;42.59;100684.27;108141;1251;73801;-66
2023/10/05 00:26:46;;;;;;;8.20;4.00;;;;;;;20.43;42.64;100687.91;108291;1253;68723;-65
2023/10/05 00:29:40;;;;;;;11.20;4.10;;;;;;;20.40;42.52;100692.77;108118;1253;72595;-66
2023/10/05 00:32:22;;;;;;;11.20;4.30;;;;;;;20.51;42.50;100690.78;108187;1253;61650;-65
2023/10/05 00:35:08;;;;;;;11.20;4.20;;;;;;;20.39;42.47;100686.04;108099;1254;60409;-66
2023/10/05 00:37:36;;;;;;;9.80;3.80;;;;;;;20.31;42.68;100684.46;108186;1253;72571;-66
2023/10/05 00:40:05;;;;;;;9.80;4.00;;;;;;;20.24;42.80;100685.09;108104;1254;69052;-66
2023/10/05 00:42:33;;;;;;;7.30;3.80;;;;;;;20.19;42.76;100686.86;108016;1252;71466;-66
2023/10/05 00:45:02;;;;;;;8.60;4.20;;;;;;;20.14;42.85;100690.99;108074;1253;60355;-65
2023/10/05 00:47:30;;;;;;;12.40;4.30;;;;;;;20.17;42.96;100695.08;108110;1253;60344;-66
2023/10/05 00:50:01;;;;;;;8.40;4.00;;;;;;;20.10;42.86;100694.42;108039;1260;72555;-66
2023/10/05 00:52:30;;;;;;;12.70;4.30;;;;;;;20.02;43.16;100697.65;108180;1252;69935;-67
2023/10/05 00:56:55;;;;;;;9.20;4.20;;;;;;;18.09;47.63;100686.68;105123;1289;600996;-65
2023/10/05 00:59:24;;;;;;;10.90;4.40;;;;;;;19.10;45.49;100684.25;107434;1264;61734;-65
2023/10/05 01:04:34;;;;;;;10.40;4.60;;;;;;;19.34;44.96;100686.99;107405;1263;72212;-65
2023/10/05 01:07:18;;;;;;;8.30;4.10;;;;;;;19.38;44.84;100683.32;107372;1263;70300;-66
2023/10/05 01:14:52;;;;;;;11.60;4.20;;;;;;;19.63;44.28;100694.55;107447;1261;60901;-66
2023/10/05 01:17:21;;;;;;;14.10;4.20;;;;;;;19.62;44.24;100697.80;107393;1261;71270;-66
2023/10/05 01:19:55;;;;;;;12.00;4.50;;;;;;;19.70;44.26;100696.76;107486;1261;70087;-66
2023/10/05 01:22:24;;;;;;;10.70;3.90;;;;;;;19.72;44.26;100693.59;107433;1261;71451;-64
2023/10/05 01:24:51;;;;;;;11.00;4.50;;;;;;;19.67;44.05;100699.45;107422;1263;61666;-65
2023/10/05 01:27:20;;;;;;;11.20;4.30;;;;;;;19.81;43.94;100698.74;107479;1263;59501;-66
2023/10/05 01:29:49;;;;;;;7.10;4.40;;;;;;;19.96;43.56;100704.15;107404;1262;71814;-66
2023/10/05 01:32:17;;;;;;;8.50;4.20;;;;;;;19.90;43.76;100703.45;107506;1264;70465;-66
2023/10/05 01:34:49;;;;;;;8.70;3.90;;;;;;;19.81;43.83;100706.70;107407;1265;72472;-66
2023/10/05 01:37:18;;;;;;;10.10;4.00;;;;;;;19.89;43.59;100706.02;107402;1263;62241;-66
2023/10/05 01:39:46;;;;;;;8.60;4.10;;;;;;;19.67;44.08;100710.13;107388;1263;59459;-66
2023/10/05 01:42:14;;;;;;;7.80;4.30;;;;;;;19.46;44.30;100713.45;107387;1264;73058;-66
2023/10/05 01:44:47;;;;;;;8.40;4.20;;;;;;;19.55;44.19;100717.30;107303;1263;70329;-65
2023/10/05 01:47:15;;;;;;;9.90;4.20;;;;;;;19.49;44.18;100721.27;107406;1264;71738;-66
2023/10/05 01:49:44;;;;;;;10.90;4.20;;;;;;;19.49;44.24;100725.21;107395;1264;61785;-65
2023/10/05 01:52:12;;;;;;;7.80;4.40;;;;;;;19.69;43.94;100723.53;107328;1264;59521;-67
2023/10/05 01:54:43;;;;;;;11.10;4.50;;;;;;;19.66;43.86;100727.27;107609;1263;73094;-66
2023/10/05 01:57:12;;;;;;;9.80;4.20;;;;;;;19.68;43.82;100724.87;107578;1261;70098;-66
2023/10/05 01:59:41;;;;;;;8.10;4.40;;;;;;;19.69;43.90;100726.20;107460;1262;72412;-64
2023/10/05 02:02:10;;;;;;;10.10;4.60;;;;;;;19.56;43.94;100722.38;107416;1261;60467;-66
2023/10/05 02:04:44;;;;;;;9.30;4.40;;;;;;;19.40;44.22;100725.73;107557;1259;59265;-66
2023/10/05 02:07:13;;;;;;;12.60;4.70;;;;;;;19.31;44.29;100727.23;107948;1258;72987;-65
2023/10/05 02:09:41;;;;;;;13.10;5.30;;;;;;;19.30;44.33;100728.55;107869;1256;69832;-65
2023/10/05 02:12:09;;;;;;;14.50;4.50;;;;;;;19.30;44.36;100727.65;107886;1257;71384;-66
2023/10/05 02:14:41;;;;;;;10.40;4.40;;;;;;;19.23;44.47;100731.12;107838;1257;60724;-65
2023/10/05 02:17:09;;;;;;;9.10;4.10;;;;;;;19.17;44.60;100732.75;107690;1257;59440;-65
2023/10/05 02:19:41;;;;;;;16.50;5.20;;;;;;;19.09;44.84;100734.31;107866;1256;73032;-67
2023/10/05 02:22:11;;;;;;;10.20;5.00;;;;;;;19.04;44.85;100735.89;107808;1258;70721;-67
2023/10/05 02:24:42;;;;;;;8.30;4.10;;;;;;;19.03;44.92;100740.02;107853;1258;71476;-65
2023/10/05 02:27:09;;;;;;;11.20;4.70;;;;;;;19.01;44.87;100749.94;107904;1257;61551;-66
2023/10/05 02:29:40;;;;;;;7.80;4.40;;;;;;;18.93;44.95;100745.80;107767;1260;60002;-66
2023/10/05 02:32:11;;;;;;;9.30;4.90;;;;;;;18.85;45.42;100743.28;107639;1257;71875;-65
2023/10/05 02:34:59;;;;;;;10.20;4.70;;;;;;;18.84;45.41;100743.16;107788;1257;68822;-65
2023/10/05 02:37:32;;;;;;;10.70;5.00;;;;;;;18.81;45.43;100739.29;107725;1260;72742;-65
2023/10/05 02:40:00;;;;;;;9.00;4.20;;;;;;;18.70;45.74;100735.30;107857;1256;62385;-67
2023/10/05 02:42:29;;;;;;;12.30;5.10;;;;;;;18.58;45.98;100737.43;107700;1256;60066;-65
2023/10/05 02:45:02;;;;;;;9.40;5.10;;;;;;;18.55;46.17;100738.33;107635;1257;72593;-66
2023/10/05 02:47:30;;;;;;;11.70;5.00;;;;;;;18.49;46.32;100741.90;107652;1257;68858;-64
2023/10/05 02:50:01;;;;;;;7.10;4.40;;;;;;;18.48;46.33;100740.90;107802;1257;71464;-65
2023/10/05 02:52:32;;;;;;;8.00;4.80;;;;;;;18.51;46.46;100737.17;107674;1257;61730;-66
2023/10/05 02:55:00;;;;;;;13.20;5.50;;;;;;;18.34;46.86;100739.45;107934;1258;60137;-66
2023/10/05 02:57:28;;;;;;;8.90;5.10;;;;;;;18.47;46.44;100738.82;107933;1256;73328;-66
2023/10/05 02:59:55;;;;;;;13.20;5.10;;;;;;;18.53;46.29;100733.66;107817;1257;70140;-65
2023/10/05 03:02:23;;;;;;;13.40;5.60;;;;;;;18.38;46.40;100741.16;107655;1257;71435;-60
2023/10/05 03:07:25;;;;;;;11.20;5.30;;;;;;;18.31;46.51;100734.09;108118;1253;59493;-64
2023/10/05 03:09:59;;;;;;;9.80;4.20;;;;;;;18.23;46.73;100732.23;108390;1252;73067;-64
2023/10/05 03:12:32;;;;;;;11.10;5.60;;;;;;;18.20;46.61;100737.73;108372;1251;70308;-65
2023/10/05 03:15:06;;;;;;;14.80;5.50;;;;;;;18.21;46.53;100745.30;108293;1251;72677;-65
2023/10/05 03:17:37;;;;;;;12.70;5.80;;;;;;;18.24;46.52;100744.60;108263;1255;61736;-65
2023/10/05 03:20:08;;;;;;;13.00;5.70;;;;;;;18.15;46.58;100751.52;108362;1254;59974;-66
2023/10/05 03:22:35;;;;;;;12.40;5.70;;;;;;;18.04;46.72;100747.58;108276;1250;73391;-66
2023/10/05 03:25:04;;;;;;;18.60;6.00;;;;;;;17.98;46.87;100750.22;108265;1251;69008;-66
2023/10/05 03:27:33;;;;;;;10.10;5.70;;;;;;;17.91;47.10;100744.46;108105;1254;72779;-65
2023/10/05 03:30:03;;;;;;;8.70;5.70;;;;;;;17.84;47.36;100740.57;107939;1253;61713;-66
2023/10/05 03:32:31;;;;;;;15.00;6.20;;;;;;;17.94;47.19;100741.77;108062;1259;59525;-66
2023/10/05 03:34:59;;;;;;;14.90;6.20;;;;;;;17.95;47.12;100750.06;108004;1254;71771;-65
2023/10/05 03:37:29;;;;;;;12.60;5.50;;;;;;;17.87;47.27;100749.80;108203;1254;69993;-65
2023/10/05 03:40:08;;;;;;;12.70;5.90;;;;;;;17.98;47.29;100743.33;108050;1254;71484;-65
2023/10/05 03:42:35;;;;;;;11.40;5.80;;;;;;;18.01;47.25;100741.52;108010;1257;60426;-64
2023/10/05 03:45:03;;;;;;;10.60;5.30;;;;;;;17.88;47.64;100743.88;108085;1252;59981;-67
2023/10/05 03:47:34;;;;;;;13.90;5.50;;;;;;;17.90;47.69;100747.35;108038;1254;73049;-66
2023/10/05 03:50:02;;;;;;;12.40;5.90;;;;;;;17.89;47.75;100747.92;107978;1253;70462;-66
2023/10/05 03:52:32;;;;;;;12.00;5.60;;;;;;;17.86;48.02;100748.27;108039;1254;73140;-65
2023/10/05 03:55:01;;;;;;;10.00;5.90;;;;;;;17.63;48.30;100752.04;107927;1257;62330;-66
2023/10/05 03:57:31;;;;;;;9.10;5.50;;;;;;;17.74;48.00;100747.66;108038;1254;59408;-66
2023/10/05 03:59:59;;;;;;;18.30;6.10;;;;;;;17.69;48.09;100746.36;108005;1254;72181;-65
2023/10/05 04:02:38;;;;;;;11.40;6.00;;;;;;;17.66;47.99;100751.14;108004;1254;70269;-65
2023/10/05 04:05:10;;;;;;;10.90;5.30;;;;;;;17.57;48.17;100754.70;108008;1254;70993;-66
2023/10/05 04:07:39;;;;;;;19.00;6.10;;;;;;;17.42;48.35;100756.02;107952;1260;60696;-66
2023/10/05 04:10:15;;;;;;;19.00;5.80;;;;;;;17.81;47.56;100756.88;108004;1254;59641;-66
2023/10/05 04:12:43;;;;;;;14.20;6.00;;;;;;;17.82;47.60;100757.38;108083;1254;71643;-66
2023/10/05 04:15:11;;;;;;;15.00;6.50;;;;;;;17.82;47.53;100757.16;108034;1254;70184;-66
2023/10/05 04:17:39;;;;;;;9.00;5.60;;;;;;;17.76;47.80;100760.54;108055;1254;72678;-65
2023/10/05 04:20:17;;;;;;;14.70;6.50;;;;;;;17.88;47.67;100762.54;107963;1254;61737;-66
2023/10/05 04:22:47;;;;;;;15.80;7.40;;;;;;;17.88;47.58;100763.46;108106;1254;59504;-65
2023/10/05 04:25:16;;;;;;;10.30;6.60;;;;;;;17.77;47.63;100761.56;108053;1254;73124;-65
2023/10/05 04:27:47;;;;;;;20.80;7.20;;;;;;;17.64;47.98;100764.20;108024;1254;70423;-65
2023/10/05 04:30:18;;;;;;;14.10;6.00;;;;;;;17.68;47.95;100762.91;108060;1254;71513;-66
2023/10/05 04:32:46;;;;;;;12.50;5.90;;;;;;;17.62;48.37;100762.90;108087;1256;59938;-66
2023/10/05 04:35:38;;;;;;;11.80;6.30;;;;;;;17.48;48.99;100763.69;108041;1254;60068;-66
2023/10/05 04:38:04;;;;;;;11.00;6.20;;;;;;;17.47;49.28;100765.55;108043;1254;72994;-67
2023/10/05 04:40:34;;;;;;;11.40;6.30;;;;;;;17.51;49.48;100768.64;108026;1254;70660;-66
2023/10/05 04:43:04;;;;;;;17.00;6.30;;;;;;;17.49;49.68;100773.23;107962;1254;72905;-63
2023/10/05 04:45:32;;;;;;;12.50;7.00;;;;;;;17.62;49.55;100772.66;108053;1255;61741;-66
2023/10/05 04:47:59;;;;;;;14.10;7.10;;;;;;;17.77;49.26;100769.52;107946;1254;60049;-65
2023/10/05 04:50:27;;;;;;;13.20;6.40;;;;;;;17.87;49.12;100776.11;108023;1259;71745;-66
2023/10/05 04:52:55;;;;;;;13.00;6.60;;;;;;;17.86;49.32;100779.19;108083;1254;70462;-66
2023/10/05 04:55:31;;;;;;;11.60;6.50;;;;;;;17.97;49.15;100779.80;108039;1254;72659;-67
2023/10/05 05:03:32;;;;;;;13.90;6.30;;;;;;;18.48;49.29;100787.67;108017;1258;73233;-65
2023/10/05 05:08:35;;;;;;;13.90;5.70;;;;;;;19.58;47.33;100792.65;108041;1259;74880;-63
2023/10/05 05:11:03;;;;;;;11.50;5.80;;;;;;;20.05;46.32;100794.20;108059;1254;61894;-64
2023/10/05 05:13:30;;;;;;;10.60;5.50;;;;;;;20.68;45.29;100789.64;108074;1258;60453;-67
2023/10/05 05:15:58;;;;;;;12.40;5.90;;;;;;;21.26;44.12;100793.83;108150;1254;75173;-66
2023/10/05 05:18:25;;;;;;;9.90;5.00;;;;;;;21.92;42.35;100789.59;108021;1258;70774;-66
2023/10/05 05:20:54;;;;;;;16.90;5.00;;;;;;;22.55;41.07;100787.77;108064;1254;74850;-66
2023/10/05 05:23:21;;;;;;;11.60;5.10;;;;;;;23.22;40.16;100788.98;108087;1255;61770;-66
2023/10/05 05:25:51;;;;;;;8.00;4.50;;;;;;;23.65;39.15;100787.34;108036;1254;60350;-66
2023/10/05 05:28:19;;;;;;;15.70;5.00;;;;;;;24.11;38.04;100790.52;108104;1254;74850;-65
2023/10/05 05:30:47;;;;;;;10.00;4.80;;;;;;;24.43;37.30;100792.19;108118;1254;69557;-66
2023/10/05 05:33:17;;;;;;;8.80;4.70;;;;;;;24.66;36.91;100790.95;108109;1257;72708;-65
2023/10/05 05:35:45;;;;;;;17.50;5.00;;;;;;;25.10;35.74;100789.82;108054;1257;60424;-66
2023/10/05 05:38:12;;;;;;;10.30;4.70;;;;;;;25.42;35.59;100788.89;108087;1254;60210;-67
2023/10/05 05:40:40;;;;;;;10.00;4.50;;;;;;;25.95;34.86;100784.83;108057;1253;73887;-67
2023/10/05 05:43:08;;;;;;;11.40;4.40;;;;;;;26.46;34.06;100781.40;108131;1254;69271;-68
2023/10/05 05:45:42;;;;;;;9.50;3.80;;;;;;;26.77;33.59;100786.58;108147;1253;74876;-66
2023/10/05 05:48:14;;;;;;;14.40;4.50;;;;;;;27.31;32.89;100784.46;108146;1254;60402;-66
2023/10/05 05:50:43;;;;;;;9.40;4.20;;;;;;;28.13;31.29;100786.33;108161;1253;60361;-65
2023/10/05 05:53:11;;;;;;;8.00;4.10;;;;;;;28.46;29.96;100789.30;108116;1254;74285;-67
2023/10/05 05:55:52;;;;;;;10.50;4.60;;;;;;;28.58;29.80;100782.69;108136;1257;69688;-66
2023/10/05 05:58:21;;;;;;;8.30;3.90;;;;;;;28.74;29.53;100779.04;108194;1256;71258;-66
2023/10/05 06:00:52;;;;;;;9.00;3.80;;;;;;;29.04;29.22;100783.48;108266;1257;60546;-66
2023/10/05 06:03:20;;;;;;;10.70;3.80;;;;;;;29.30;28.90;100779.86;108190;1254;60430;-67
2023/10/05 06:05:48;;;;;;;9.40;4.00;;;;;;;29.50;28.36;100779.16;108237;1253;72637;-67
2023/10/05 06:08:16;;;;;;;8.50;4.30;;;;;;;29.51;28.21;100782.00;108233;1252;71204;-65
2023/10/05 06:10:46;;;;;;;8.90;3.80;;;;;;;29.29;28.22;100781.21;108187;1254;71801;-67
2023/10/05 06:13:16;;;;;;;7.70;4.10;;;;;;;29.35;28.42;100788.16;108264;1254;61927;-67
2023/10/05 06:15:44;;;;;;;11.60;4.40;;;;;;;29.85;28.06;100787.23;108258;1256;60315;-67
2023/10/05 06:18:12;;;;;;;9.00;4.00;;;;;;;30.00;27.73;100790.14;108331;1254;74172;-67
2023/10/05 06:20:40;;;;;;;12.30;4.30;;;;;;;30.36;27.59;100794.70;108263;1255;69525;-66
2023/10/05 06:23:08;;;;;;;10.20;4.00;;;;;;;30.78;27.02;100793.67;108259;1257;73354;-66
2023/10/05 06:25:35;;;;;;;9.70;3.90;;;;;;;30.84;26.34;100797.00;108213;1255;61128;-68
2023/10/05 06:28:03;;;;;;;9.20;3.90;;;;;;;30.87;26.30;100796.45;108196;1256;60990;-68
2023/10/05 06:30:32;;;;;;;10.20;3.90;;;;;;;30.99;26.33;100797.79;108173;1254;76114;-67
2023/10/05 06:33:07;;;;;;;10.70;4.00;;;;;;;30.87;26.21;100800.15;108146;1254;70855;-66
2023/10/05 06:35:35;;;;;;;10.00;4.20;;;;;;;30.28;26.64;100801.73;108103;1257;73511;-67
2023/10/05 06:38:03;;;;;;;8.40;3.40;;;;;;;30.08;27.14;100802.61;108163;1254;61907;-67
2023/10/05 06:40:33;;;;;;;10.50;4.10;;;;;;;30.15;27.25;100804.93;108173;1254;60437;-67
2023/10/05 06:43:00;;;;;;;14.30;4.60;;;;;;;30.60;26.93;100804.04;108141;1254;73481;-66
2023/10/05 06:45:30;;;;;;;10.40;3.80;;;;;;;30.91;26.43;100802.97;108187;1255;69137;-66
2023/10/05 06:47:57;;;;;;;9.60;4.10;;;;;;;31.23;26.04;100801.00;108135;1257;71524;-66
2023/10/05 06:50:25;;;;;;;7.70;3.70;;;;;;;31.40;25.84;100799.92;108072;1254;62483;-66
2023/10/05 06:52:52;;;;;;;7.90;3.80;;;;;;;31.92;25.58;100799.73;108063;1255;62161;-67
2023/10/05 06:55:21;;;;;;;11.50;3.80;;;;;;;32.25;25.02;100806.32;108095;1257;74678;-67
2023/10/05 06:57:50;;;;;;;10.40;4.30;;;;;;;32.02;24.74;100807.09;108121;1254;71490;-68
2023/10/05 07:00:21;;;;;;;10.30;3.90;;;;;;;32.14;24.75;100811.33;108136;1259;74841;-66
2023/10/05 07:02:50;;;;;;;9.90;3.90;;;;;;;31.92;24.86;100810.39;108137;1258;60427;-67
2023/10/05 07:05:18;;;;;;;10.60;3.80;;;;;;;32.11;24.93;100811.34;108089;1258;60319;-67
2023/10/05 07:07:45;;;;;;;10.20;3.80;;;;;;;32.32;24.68;100810.27;108108;1254;73698;-66
2023/10/05 07:10:14;;;;;;;8.00;4.20;;;;;;;32.40;24.53;100808.64;108106;1259;70686;-67
2023/10/05 07:12:44;;;;;;;11.20;4.30;;;;;;;32.04;24.66;100807.14;108076;1257;71273;-68
2023/10/05 07:15:14;;;;;;;8.60;3.90;;;;;;;31.49;25.28;100805.34;108089;1260;61153;-67
2023/10/05 07:17:42;;;;;;;9.00;4.40;;;;;;;31.63;25.31;100810.39;108086;1257;62671;-67
2023/10/05 07:20:13;;;;;;;10.00;3.50;;;;;;;31.76;25.08;100811.95;108117;1257;75952;-67
2023/10/05 07:22:41;;;;;;;;;;;;;;;31.45;25.42;100812.02;107983;1255;70396;-67
2023/10/05 07:25:10;;;;;;;12.70;3.80;;;;;;;31.45;25.50;100811.98;108036;1255;71997;-67
2023/10/05 07:27:39;;;;;;;7.20;3.90;;;;;;;31.53;25.62;100809.52;107998;1251;60402;-67
2023/10/05 07:30:08;;;;;;;12.40;4.40;;;;;;;31.96;25.27;100806.35;108408;1251;60505;-66
2023/10/05 07:32:36;;;;;;;6.70;3.50;;;;;;;32.32;25.02;100808.04;108234;1251;72622;-68
2023/10/05 07:35:07;;;;;;;10.10;3.90;;;;;;;32.64;24.18;100814.64;108162;1257;72615;-68
2023/10/05 07:37:35;;;;;;;8.80;3.80;;;;;;;32.79;24.13;100813.77;108243;1251;73602;-66
2023/10/05 07:40:09;;;;;;;12.00;3.90;;;;;;;32.16;24.67;100811.07;108276;1257;59575;-67
2023/10/05 07:42:40;;;;;;;7.90;3.50;;;;;;;31.78;24.85;100810.93;108215;1251;61116;-68
2023/10/05 07:45:08;;;;;;;11.30;4.20;;;;;;;32.07;25.11;100808.50;108245;1251;76091;-68
2023/10/05 07:47:42;;;;;;;9.40;3.60;;;;;;;32.38;24.68;100809.02;108168;1251;70660;-68
2023/10/05 07:50:10;;;;;;;8.90;3.50;;;;;;;32.56;24.44;100803.17;108224;1251;73630;-67
2023/10/05 07:52:42;;;;;;;9.30;4.10;;;;;;;33.13;24.05;100805.14;108166;1254;59652;-67
2023/10/05 07:55:09;;;;;;;;;;;;;;;33.28;23.57;100796.73;108256;1250;60756;-68
2023/10/05 07:57:37;;;;;;;9.70;3.80;;;;;;;33.00;23.64;100799.89;108250;1257;74058;-68
2023/10/05 08:00:13;;;;;;;11.40;3.60;;;;;;;32.81;23.84;100794.61;108228;1256;70434;-68
2023/10/05 08:02:41;;;;;;;11.40;4.30;;;;;;;33.00;23.73;100788.52;108352;1251;71478;-67
2023/10/05 08:05:11;;;;;;;11.20;4.20;;;;;;;33.30;23.37;100784.64;108287;1257;60292;-67
2023/10/05 08:07:40;;;;;;;9.40;3.60;;;;;;;33.61;23.23;100778.95;108166;1251;60271;-67
2023/10/05 08:10:13;;;;;;;11.00;3.70;;;;;;;33.35;23.07;100779.70;108296;1251;74171;-67
2023/10/05 08:12:44;;;;;;;11.20;4.00;;;;;;;32.79;23.62;100779.36;108138;1251;70496;-68
2023/10/05 08:15:18;;;;;;;9.90;4.00;;;;;;;32.69;23.83;100777.70;108225;1251;72760;-67
2023/10/05 08:17:51;;;;;;;13.30;4.10;;;;;;;32.04;24.23;100777.94;108382;1254;60332;-67
2023/10/05 08:20:20;;;;;;;11.10;4.30;;;;;;;31.92;24.44;100779.49;108225;1251;59165;-67
2023/10/05 08:22:54;;;;;;;11.00;3.80;;;;;;;32.14;24.34;100778.30;108101;1251;73758;-68
2023/10/05 08:25:22;;;;;;;9.20;3.80;;;;;;;32.27;24.19;100774.87;108266;1251;70084;-67
2023/10/05 08:27:51;;;;;;;10.50;4.10;;;;;;;32.54;23.84;100777.89;108074;1254;72000;-67
2023/10/05 08:30:23;;;;;;;8.60;3.60;;;;;;;32.73;23.74;100775.52;108141;1253;60399;-68
2023/10/05 08:32:53;;;;;;;9.90;4.40;;;;;;;32.51;23.92;100776.22;108138;1257;59623;-68
2023/10/05 08:35:21;;;;;;;10.90;4.30;;;;;;;32.14;24.18;100772.41;108178;1254;74118;-67
2023/10/05 08:37:49;;;;;;;9.50;4.20;;;;;;;32.02;24.35;100765.45;108088;1255;69199;-67
2023/10/05 08:40:37;;;;;;;9.70;3.90;;;;;;;32.24;24.08;100764.27;108019;1254;71521;-66
2023/10/05 08:43:16;;;;;;;9.90;4.10;;;;;;;32.20;24.07;100761.58;108172;1254;60925;-67
2023/10/05 08:45:51;;;;;;;10.10;4.20;;;;;;;32.40;24.09;100763.52;108102;1254;60602;-66
2023/10/05 08:48:39;;;;;;;8.80;3.60;;;;;;;32.43;23.63;100763.67;108236;1257;73845;-67
2023/10/05 08:51:10;;;;;;;13.10;4.50;;;;;;;32.15;24.20;100761.27;108168;1257;72376;-67
2023/10/05 08:53:48;;;;;;;10.70;4.20;;;;;;;31.75;24.59;100760.83;108078;1254;71486;-67
2023/10/05 08:56:17;;;;;;;11.10;4.20;;;;;;;31.12;25.18;100761.96;108014;1254;60023;-67
2023/10/05 08:58:46;;;;;;;8.40;4.00;;;;;;;30.73;25.61;100763.09;108159;1254;60264;-67
2023/10/05 09:01:33;;;;;;;14.20;4.80;;;;;;;30.22;26.15;100762.33;108178;1254;76078;-67
2023/10/05 09:06:55;;;;;;;13.50;4.30;;;;;;;29.74;26.78;100762.48;108306;1251;72781;-67
2023/10/05 09:09:37;;;;;;;10.30;4.40;;;;;;;29.61;26.89;100752.37;108268;1256;60443;-67
2023/10/05 09:12:18;;;;;;;11.70;4.00;;;;;;;29.70;27.12;100752.14;108229;1253;62241;-67
2023/10/05 09:14:46;;;;;;;13.20;4.20;;;;;;;29.35;27.23;100754.95;108233;1257;74882;-66
2023/10/05 09:17:16;;;;;;;12.60;4.40;;;;;;;29.02;27.64;100756.22;108344;1251;69020;-67
2023/10/05 09:19:44;;;;;;;11.30;4.60;;;;;;;28.78;27.85;100758.55;108229;1251;74062;-67
2023/10/05 09:22:13;;;;;;;10.10;3.80;;;;;;;28.69;27.79;100754.63;108179;1251;62889;-66
2023/10/05 09:24:54;;;;;;;8.50;3.80;;;;;;;28.34;28.13;100751.30;108243;1257;61142;-66
2023/10/05 09:27:26;;;;;;;;;;;;;;;28.32;28.19;100742.73;108228;1254;74001;-66
2023/10/05 09:30:09;;;;;;;11.20;4.40;;;;;;;28.44;28.06;100739.64;108367;1251;70812;-66
2023/10/05 09:32:36;;;;;;;12.40;3.90;;;;;;;28.74;27.94;100738.16;108338;1251;71813;-67
2023/10/05 09:35:09;;;;;;;14.00;3.90;;;;;;;28.73;27.73;100741.41;108365;1253;59139;-68
2023/10/05 09:37:39;;;;;;;9.70;4.40;;;;;;;28.96;27.53;100739.16;108387;1251;61213;-68
2023/10/05 09:40:15;;;;;;;14.50;4.40;;;;;;;29.59;27.17;100734.76;108382;1254;74994;-69
2023/10/05 09:42:43;;;;;;;10.60;4.10;;;;;;;30.31;26.36;100735.16;108431;1251;71619;-66
2023/10/05 09:45:12;;;;;;;9.10;4.00;;;;;;;30.70;25.48;100729.73;108240;1251;73517;-67
2023/10/05 09:47:40;;;;;;;11.50;4.10;;;;;;;30.81;25.31;100730.98;108394;1251;60398;-67
2023/10/05 09:50:12;;;;;;;11.40;4.00;;;;;;;30.92;24.80;100729.73;108220;1251;62148;-67
2023/10/05 09:52:46;;;;;;;8.50;3.70;;;;;;;31.02;24.85;100725.02;108317;1251;72876;-66
2023/10/05 09:55:17;;;;;;;10.50;3.90;;;;;;;31.02;25.10;100723.70;108389;1251;72594;-67
2023/10/05 09:57:51;;;;;;;10.80;3.80;;;;;;;30.84;25.49;100720.12;108444;1251;73606;-67
2023/10/05 10:02:57;;;;;;;11.30;3.50;;;;;;;30.12;25.66;100719.65;108474;1251;60958;-66
2023/10/05 10:05:42;;;;;;;12.50;3.90;;;;;;;29.52;26.12;100717.50;108416;1251;74684;-66
2023/10/05 10:08:14;;;;;;;10.00;4.50;;;;;;;29.42;26.37;100712.06;108346;1251;68987;-67
2023/10/05 10:10:51;;;;;;;7.10;3.40;;;;;;;29.54;26.57;100711.64;108365;1251;71531;-67
2023/10/05 10:13:22;;;;;;;10.10;4.00;;;;;;;29.64;26.52;100710.88;108349;1254;60326;-66
2023/10/05 10:15:56;;;;;;;;;;;;;;;29.68;26.55;100710.09;108241;1251;60335;-67
2023/10/05 10:18:37;;;;;;;6.40;3.00;;;;;;;29.15;27.04;100708.07;108336;1251;75193;-67
2023/10/05 10:21:11;;;;;;;9.20;3.80;;;;;;;29.42;26.64;100706.41;108172;1257;72462;-68
2023/10/05 10:23:39;;;;;;;9.60;3.60;;;;;;;29.71;26.53;100704.23;108251;1251;72718;-66
2023/10/05 10:26:16;;;;;;;16.00;4.90;;;;;;;29.57;26.57;100706.09;108320;1251;60539;-66
2023/10/05 10:31:56;;;;;;;12.90;4.40;;;;;;;29.10;27.19;100705.45;108151;1251;74688;-67
2023/10/05 10:34:28;;;;;;;9.60;3.60;;;;;;;29.26;27.21;100704.79;108208;1251;71666;-67
2023/10/05 10:36:56;;;;;;;11.50;3.90;;;;;;;29.54;26.94;100702.27;108211;1251;75579;-67
2023/10/05 10:39:27;;;;;;;10.30;4.20;;;;;;;29.85;26.53;100702.38;108154;1251;60996;-67
2023/10/05 10:42:04;;;;;;;11.90;3.70;;;;;;;30.16;25.95;100699.51;108271;1251;60937;-67
2023/10/05 10:44:51;;;;;;;10.30;3.80;;;;;;;29.73;26.25;100694.59;108202;1251;72664;-67
2023/10/05 10:47:19;;;;;;;9.90;3.30;;;;;;;29.30;26.96;100688.04;108249;1254;69195;-67
2023/10/05 10:50:15;;;;;;;11.50;3.80;;;;;;;28.77;27.68;100693.75;108278;1251;71518;-67
2023/10/05 10:52:43;;;;;;;13.30;4.30;;;;;;;28.51;27.82;100696.90;108200;1251;60319;-67
2023/10/05 10:55:17;;;;;;;10.60;3.90;;;;;;;28.48;27.88;100697.35;108238;1251;61496;-67
2023/10/05 10:57:47;;;;;;;9.70;3.90;;;;;;;28.14;28.24;100696.65;108256;1251;74989;-67
2023/10/05 11:03:17;;;;;;;9.50;3.80;;;;;;;27.93;28.63;100693.72;108258;1254;72320;-67
2023/10/05 11:05:55;;;;;;;9.80;3.60;;;;;;;28.09;28.49;100683.14;108217;1254;60325;-66
2023/10/05 11:08:23;;;;;;;9.70;3.90;;;;;;;28.33;28.15;100672.11;108238;1251;60374;-65
2023/10/05 11:11:09;;;;;;;7.00;3.80;;;;;;;28.67;28.30;100667.17;108229;1251;74958;-67
2023/10/05 11:13:43;;;;;;;11.30;3.60;;;;;;;29.53;26.86;100662.40;108212;1251;69227;-67
2023/10/05 11:16:15;;;;;;;16.80;3.80;;;;;;;29.87;26.08;100662.98;108170;1256;72576;-67
2023/10/05 11:19:03;;;;;;;12.10;4.20;;;;;;;29.96;25.89;100670.56;108201;1254;60313;-67
2023/10/05 11:21:45;;;;;;;9.50;3.70;;;;;;;29.62;25.98;100669.37;108161;1251;61019;-67
2023/10/05 11:24:18;;;;;;;9.00;3.40;;;;;;;29.55;26.17;100671.92;108226;1251;74455;-68
2023/10/05 11:29:29;;;;;;;9.80;4.00;;;;;;;29.20;26.57;100672.31;108325;1254;73755;-68
2023/10/05 11:32:03;;;;;;;10.40;3.90;;;;;;;29.15;26.84;100664.71;108263;1250;60268;-66
2023/10/05 11:34:55;;;;;;;13.50;3.90;;;;;;;29.11;26.65;100656.02;108297;1256;60556;-67
2023/10/05 11:37:45;;;;;;;10.40;3.30;;;;;;;28.73;26.81;100654.10;108254;1250;74014;-67
2023/10/05 11:40:23;;;;;;;9.40;3.90;;;;;;;28.77;26.90;100649.19;108368;1251;69234;-67
2023/10/05 11:42:51;;;;;;;12.60;4.00;;;;;;;28.72;27.03;100645.71;108286;1254;72271;-66
2023/10/05 11:45:18;;;;;;;9.70;3.60;;;;;;;28.61;26.60;100644.33;108267;1250;60536;-66
2023/10/05 11:47:56;;;;;;;9.50;3.80;;;;;;;28.49;26.68;100645.26;108299;1251;62185;-67
2023/10/05 11:50:34;;;;;;;9.90;3.50;;;;;;;28.19;26.82;100643.45;108239;1251;74503;-67
2023/10/05 11:53:11;;;;;;;8.10;3.60;;;;;;;28.17;26.72;100640.23;108375;1256;69077;-67
2023/10/05 11:55:39;;;;;;;11.30;3.50;;;;;;;28.21;27.03;100634.02;108387;1253;72846;-67
2023/10/05 11:58:08;;;;;;;9.60;3.70;;;;;;;28.33;27.28;100625.92;108188;1259;62220;-67
2023/10/05 12:00:36;;;;;;;9.10;3.70;;;;;;;28.48;26.72;100622.27;108494;1251;60568;-67
2023/10/05 12:03:09;;;;;;;11.00;4.00;;;;;;;28.83;26.57;100616.67;108438;1256;73856;-66
2023/10/05 12:05:38;;;;;;;10.30;3.90;;;;;;;28.97;26.34;100617.55;108348;1256;68788;-67
2023/10/05 12:08:06;;;;;;;10.90;4.10;;;;;;;28.80;26.43;100612.51;108201;1253;72995;-66
2023/10/05 12:10:34;;;;;;;11.60;4.10;;;;;;;28.30;26.95;100609.25;108328;1250;60789;-66
2023/10/05 12:13:02;;;;;;;8.80;3.80;;;;;;;27.75;27.56;100610.92;108296;1251;60874;-67